EDT,Max TemperatureF,Mean TemperatureF,Min TemperatureF,Max Dew PointF,MeanDew PointF,Min DewpointF,Max Humidity, Mean Humidity, Min Humidity, Max Sea Level PressureIn, Mean Sea Level PressureIn, Min Sea Level PressureIn, Max VisibilityMiles, Mean VisibilityMiles, Min VisibilityMiles, Max Wind SpeedMPH, Mean Wind SpeedMPH, Max Gust SpeedMPH,PrecipitationIn, CloudCover, Events, WindDirDegrees
2012-10-1,66,59,51,56,52,49,100,88,60,29.96,29.81,29.72,10,8,2,17,10,24,0.16,7,Rain,273
2012-10-2,64,58,51,60,55,49,96,89,75,30.02,29.98,29.95,10,10,4,8,4,,0.01,7,Rain,111
2012-10-3,68,64,59,65,60,57,100,93,87,30.12,30.04,30.00,10,7,2,9,6,,0.11,8,Rain,114
2012-10-4,71,64,54,63,60,53,100,91,59,30.16,30.12,30.06,10,7,2,8,1,,0.00,6,Rain,271
2012-10-5,72,60,48,61,55,46,97,86,61,30.06,29.99,29.88,10,8,2,8,2,,0.00,4,Rain,134
2012-10-6,60,54,43,58,50,35,100,88,53,30.03,29.84,29.75,10,8,2,16,7,24,0.14,7,Rain,272
2012-10-7,53,46,39,45,41,37,93,84,59,30.10,30.06,30.02,10,9,6,9,4,,0.19,7,Rain,246
2012-10-8,54,46,37,43,40,34,97,82,47,30.28,30.22,30.09,10,10,7,9,6,,0.03,5,Rain,263
2012-10-9,61,47,33,47,40,32,96,76,49,30.28,30.19,30.06,10,10,9,10,6,,0.00,6,Snow,117
2012-10-10,60,50,41,53,47,36,96,85,53,30.05,29.92,29.78,10,8,2,23,9,31,0.07,7,Rain,141
2012-10-11,53,46,39,39,36,29,89,75,41,30.17,30.07,29.94,10,9,4,28,15,37,0.22,7,Rain,262
2012-10-12,52,41,28,43,33,23,93,74,40,30.45,30.21,30.01,10,10,7,22,9,31,0.16,6,Rain-Snow,309
2012-10-13,51,38,25,37,26,22,92,68,32,30.51,30.41,30.19,10,10,9,8,2,,0.01,2,Rain-Snow,123
2012-10-14,68,55,42,57,48,40,97,87,65,30.11,29.97,29.79,10,6,2,15,11,,1.01,6,Rain,103
2012-10-15,66,59,48,55,50,36,84,70,56,29.75,29.66,29.62,10,10,10,20,10,30,0.04,7,Rain,258
2012-10-16,48,42,36,40,37,33,93,76,54,29.95,29.85,29.75,10,10,10,17,11,22,0.04,7,Rain,294
2012-10-17,64,48,34,42,38,32,93,71,43,30.01,29.94,29.88,10,10,10,9,4,,0.00,1,,117
2012-10-18,66,52,39,48,42,36,86,66,47,29.96,29.92,29.87,10,10,10,20,9,30,0.00,1,,133
2012-10-19,61,56,52,59,55,46,97,93,65,29.90,29.78,29.61,10,8,2,13,7,21,0.78,8,Rain,109
2012-10-20,57,52,44,59,47,39,100,83,53,29.77,29.69,29.62,10,8,1,13,5,26,0.39,4,Rain-Thunderstorm,246
2012-10-21,57,52,48,46,44,40,93,76,53,30.01,29.92,29.79,10,9,2,18,10,28,0.10,7,Rain,267
2012-10-22,63,53,43,48,45,40,100,79,48,30.12,30.07,30.01,10,10,6,16,10,25,0.00,3,,297
2012-10-23,55,47,39,51,46,37,97,90,77,30.16,30.12,30.08,10,10,7,7,2,,0.03,6,Rain,105
2012-10-24,53,52,50,49,44,40,89,75,66,30.19,30.15,30.11,10,10,10,13,8,17,0.00,8,,119
2012-10-25,70,61,52,57,50,46,90,78,63,30.21,30.17,30.12,10,10,9,15,9,,0.00,5,,115
2012-10-26,69,63,57,56,54,53,87,75,61,30.17,30.13,30.09,10,10,10,13,9,,0.00,7,,130
2012-10-27,68,60,53,54,52,49,88,78,59,30.11,30.02,29.95,10,10,8,8,4,,0.00,7,Rain,157
2012-10-28,53,52,46,53,47,43,97,88,80,30.02,29.96,29.86,10,9,0,10,6,,0.00,5,Fog,285
2012-10-29,64,54,45,53,47,43,93,78,62,29.83,29.46,29.03,10,10,2,24,8,40,0.06,7,Rain,22
2012-10-30,61,58,54,57,48,42,90,68,58,29.43,29.28,29.09,10,9,2,28,16,41,0.13,6,Rain,110
2012-10-31,53,48,43,48,40,36,97,85,69,29.51,29.47,29.42,10,9,4,10,5,,0.14,8,Rain,185